SBI4320 UGTB-UBBB
Flight info
| Callsign | SBI4320 |
|---|---|
| Flight time | 0h 51m |
| Altitude | 37000 |
| Route | DISKA M737 VERCA M747 LUSAL N319 PENOB T447 INSAN |
| Aircraft | A359/H-SDE2E3GHIJ3J4J5LM1ORWXY/LB1D1 |
Departure
| Time | 2026-04-26 12:35 |
|---|---|
| Airport | Tbilisi International Airport (UGTB) |
Arrival
| Time | 2026-04-26 13:26 |
|---|---|
| Airport | Heydar Aliyev International Airport (UBBB) |
| Time | Latitude | Longitude | Altitude | Speed | Heading |
|---|---|---|---|---|---|
| 2026-04-26 11:49 | 41.66793 | 44.96179 | 1533 ft | 0 kts | 223° |
| 2026-04-26 11:49 | 41.66793 | 44.96180 | 1533 ft | 0 kts | 223° |
| 2026-04-26 12:10 | 41.66794 | 44.96180 | 1560 ft | 0 kts | 223° |
| 2026-04-26 12:17 | 41.66808 | 44.96200 | 1524 ft | 4 kts | 232° |
| 2026-04-26 12:17 | 41.66822 | 44.96228 | 1524 ft | 4 kts | 250° |
| 2026-04-26 12:17 | 41.66828 | 44.96260 | 1524 ft | 4 kts | 276° |
| 2026-04-26 12:18 | 41.66822 | 44.96289 | 1524 ft | 4 kts | 307° |
| 2026-04-26 12:18 | 41.66817 | 44.96297 | 1524 ft | 1 kts | 313° |
| 2026-04-26 12:26 | 41.66821 | 44.96292 | 1533 ft | 4 kts | 314° |
| 2026-04-26 12:27 | 41.66850 | 44.96252 | 1526 ft | 8 kts | 314° |
| 2026-04-26 12:27 | 41.66892 | 44.96188 | 1524 ft | 11 kts | 309° |
| 2026-04-26 12:27 | 41.66948 | 44.96103 | 1525 ft | 14 kts | 311° |
| 2026-04-26 12:27 | 41.67018 | 44.95999 | 1527 ft | 16 kts | 314° |
| 2026-04-26 12:28 | 41.67092 | 44.95869 | 1528 ft | 19 kts | 309° |
| 2026-04-26 12:28 | 41.67187 | 44.95732 | 1528 ft | 21 kts | 314° |
| 2026-04-26 12:28 | 41.67282 | 44.95599 | 1526 ft | 15 kts | 314° |
| 2026-04-26 12:28 | 41.67361 | 44.95491 | 1529 ft | 18 kts | 315° |
| 2026-04-26 12:29 | 41.67449 | 44.95360 | 1524 ft | 20 kts | 311° |
| 2026-04-26 12:29 | 41.67546 | 44.95212 | 1524 ft | 22 kts | 309° |
| 2026-04-26 12:29 | 41.67660 | 44.95003 | 1526 ft | 10 kts | 271° |
| 2026-04-26 12:30 | 41.67643 | 44.94899 | 1526 ft | 13 kts | 253° |
| 2026-04-26 12:30 | 41.67615 | 44.94774 | 1525 ft | 15 kts | 253° |
| 2026-04-26 12:30 | 41.67581 | 44.94629 | 1529 ft | 17 kts | 252° |
| 2026-04-26 12:31 | 41.67555 | 44.94522 | 1525 ft | 0 kts | 252° |
| 2026-04-26 12:33 | 41.67553 | 44.94514 | 1526 ft | 5 kts | 252° |
| 2026-04-26 12:33 | 41.67515 | 44.94426 | 1523 ft | 13 kts | 212° |
| 2026-04-26 12:34 | 41.67435 | 44.94461 | 1527 ft | 9 kts | 141° |
| 2026-04-26 12:34 | 41.67433 | 44.94464 | 1526 ft | 0 kts | 140° |
| 2026-04-26 12:34 | 41.67263 | 44.94674 | 1524 ft | 70 kts | 135° |
| 2026-04-26 12:34 | 41.66741 | 44.95328 | 1522 ft | 134 kts | 137° |
| 2026-04-26 12:35 | 41.66038 | 44.96203 | 1831 ft | 158 kts | 138° |
| 2026-04-26 12:35 | 41.65205 | 44.97166 | 2529 ft | 160 kts | 141° |
| 2026-04-26 12:35 | 41.64356 | 44.98188 | 3111 ft | 172 kts | 137° |
| 2026-04-26 12:35 | 41.63428 | 44.99393 | 3329 ft | 201 kts | 136° |
| 2026-04-26 12:36 | 41.62360 | 45.00782 | 3631 ft | 226 kts | 136° |
| 2026-04-26 12:36 | 41.61169 | 45.02305 | 4034 ft | 247 kts | 136° |
| 2026-04-26 12:36 | 41.59891 | 45.03916 | 4604 ft | 256 kts | 135° |
| 2026-04-26 12:36 | 41.58587 | 45.05562 | 5304 ft | 260 kts | 136° |
| 2026-04-26 12:37 | 41.57252 | 45.07242 | 5995 ft | 266 kts | 136° |
| 2026-04-26 12:37 | 41.55962 | 45.09058 | 6605 ft | 273 kts | 127° |
| 2026-04-26 12:37 | 41.54889 | 45.11184 | 7202 ft | 279 kts | 122° |
| 2026-04-26 12:37 | 41.53869 | 45.13393 | 7811 ft | 285 kts | 122° |
| 2026-04-26 12:38 | 41.52817 | 45.15666 | 8505 ft | 289 kts | 123° |
| 2026-04-26 12:38 | 41.51741 | 45.17957 | 9161 ft | 294 kts | 124° |
| 2026-04-26 12:38 | 41.50638 | 45.20291 | 9822 ft | 299 kts | 124° |
| 2026-04-26 12:38 | 41.49514 | 45.22670 | 10299 ft | 310 kts | 124° |
| 2026-04-26 12:39 | 41.48324 | 45.25179 | 10549 ft | 327 kts | 124° |
| 2026-04-26 12:39 | 41.47071 | 45.27815 | 10779 ft | 343 kts | 124° |
| 2026-04-26 12:39 | 41.45665 | 45.30412 | 10992 ft | 356 kts | 131° |
| 2026-04-26 12:39 | 41.44027 | 45.32964 | 11341 ft | 365 kts | 135° |
| 2026-04-26 12:40 | 41.42287 | 45.35450 | 11790 ft | 369 kts | 136° |
| 2026-04-26 12:40 | 41.40496 | 45.37926 | 12301 ft | 372 kts | 137° |
| 2026-04-26 12:40 | 41.38688 | 45.40417 | 12812 ft | 375 kts | 136° |
| 2026-04-26 12:40 | 41.36873 | 45.42938 | 13333 ft | 378 kts | 136° |
| 2026-04-26 12:41 | 41.35058 | 45.45488 | 13845 ft | 381 kts | 136° |
| 2026-04-26 12:41 | 41.33235 | 45.48064 | 14294 ft | 384 kts | 136° |
| 2026-04-26 12:41 | 41.32021 | 45.49771 | 14594 ft | 386 kts | 136° |
| 2026-04-26 12:41 | 41.29547 | 45.53253 | 15211 ft | 389 kts | 136° |
| 2026-04-26 12:42 | 41.28308 | 45.55002 | 15517 ft | 391 kts | 136° |
| 2026-04-26 12:42 | 41.26440 | 45.57645 | 15974 ft | 393 kts | 136° |
| 2026-04-26 12:42 | 41.24559 | 45.60312 | 16437 ft | 396 kts | 136° |
| 2026-04-26 12:42 | 41.22717 | 45.63024 | 16880 ft | 400 kts | 132° |
| 2026-04-26 12:43 | 41.21145 | 45.66124 | 17325 ft | 406 kts | 121° |
| 2026-04-26 12:43 | 41.19950 | 45.69541 | 17785 ft | 410 kts | 115° |
| 2026-04-26 12:43 | 41.18909 | 45.73091 | 18227 ft | 414 kts | 112° |
| 2026-04-26 12:43 | 41.17949 | 45.76716 | 18620 ft | 417 kts | 111° |
| 2026-04-26 12:44 | 41.17032 | 45.80334 | 18979 ft | 420 kts | 111° |
| 2026-04-26 12:44 | 41.16102 | 45.84018 | 19348 ft | 423 kts | 111° |
| 2026-04-26 12:44 | 41.15154 | 45.87730 | 19724 ft | 425 kts | 111° |
| 2026-04-26 12:44 | 41.14192 | 45.91440 | 20079 ft | 428 kts | 112° |
| 2026-04-26 12:45 | 41.13205 | 45.95197 | 20438 ft | 430 kts | 112° |
| 2026-04-26 12:45 | 41.12208 | 45.98957 | 20801 ft | 432 kts | 112° |
| 2026-04-26 12:45 | 41.11204 | 46.02728 | 21153 ft | 435 kts | 112° |
| 2026-04-26 12:45 | 41.10192 | 46.06518 | 21517 ft | 437 kts | 112° |
| 2026-04-26 12:46 | 41.09185 | 46.10281 | 21858 ft | 439 kts | 112° |
| 2026-04-26 12:46 | 41.08160 | 46.14109 | 22224 ft | 441 kts | 112° |
| 2026-04-26 12:46 | 41.07131 | 46.17952 | 22596 ft | 443 kts | 112° |
| 2026-04-26 12:46 | 41.06097 | 46.21807 | 22944 ft | 445 kts | 112° |
| 2026-04-26 12:47 | 41.05055 | 46.25689 | 23321 ft | 447 kts | 112° |
| 2026-04-26 12:47 | 41.04020 | 46.29538 | 23678 ft | 449 kts | 112° |
| 2026-04-26 12:47 | 41.02975 | 46.33444 | 23965 ft | 451 kts | 112° |
| 2026-04-26 12:47 | 41.01927 | 46.37369 | 24255 ft | 453 kts | 112° |
| 2026-04-26 12:48 | 41.00874 | 46.41314 | 24552 ft | 455 kts | 113° |
| 2026-04-26 12:48 | 40.99815 | 46.45274 | 24845 ft | 457 kts | 113° |
| 2026-04-26 12:48 | 40.98753 | 46.49237 | 25141 ft | 459 kts | 113° |
| 2026-04-26 12:48 | 40.97682 | 46.53229 | 25417 ft | 461 kts | 113° |
| 2026-04-26 12:49 | 40.96603 | 46.57239 | 25707 ft | 463 kts | 113° |
| 2026-04-26 12:49 | 40.95519 | 46.61264 | 25994 ft | 465 kts | 113° |
| 2026-04-26 12:49 | 40.94429 | 46.65302 | 26305 ft | 468 kts | 113° |
| 2026-04-26 12:49 | 40.93325 | 46.69383 | 26613 ft | 470 kts | 113° |
| 2026-04-26 12:50 | 40.92221 | 46.73460 | 26943 ft | 473 kts | 113° |
| 2026-04-26 12:50 | 40.91109 | 46.77558 | 27256 ft | 475 kts | 113° |
| 2026-04-26 12:50 | 40.89987 | 46.81689 | 27590 ft | 478 kts | 113° |
| 2026-04-26 12:50 | 40.88858 | 46.85845 | 27933 ft | 481 kts | 113° |
| 2026-04-26 12:51 | 40.87721 | 46.90011 | 28264 ft | 484 kts | 114° |
| 2026-04-26 12:51 | 40.86568 | 46.94211 | 28610 ft | 487 kts | 114° |
| 2026-04-26 12:51 | 40.85422 | 46.98371 | 28944 ft | 490 kts | 114° |
| 2026-04-26 12:51 | 40.84250 | 47.02622 | 29309 ft | 493 kts | 114° |
| 2026-04-26 12:52 | 40.83073 | 47.06886 | 29655 ft | 496 kts | 114° |
| 2026-04-26 12:52 | 40.81889 | 47.11176 | 30028 ft | 499 kts | 114° |
| 2026-04-26 12:52 | 40.80697 | 47.15483 | 30373 ft | 502 kts | 114° |
| 2026-04-26 12:52 | 40.79494 | 47.19833 | 30696 ft | 505 kts | 113° |
| 2026-04-26 12:53 | 40.78277 | 47.24198 | 31032 ft | 508 kts | 114° |
| 2026-04-26 12:53 | 40.77050 | 47.28578 | 31369 ft | 510 kts | 114° |
| 2026-04-26 12:53 | 40.75815 | 47.32972 | 31694 ft | 512 kts | 114° |
| 2026-04-26 12:53 | 40.74574 | 47.37388 | 32024 ft | 514 kts | 114° |
| 2026-04-26 12:54 | 40.73326 | 47.41829 | 32231 ft | 517 kts | 113° |
| 2026-04-26 12:54 | 40.70870 | 47.50590 | 32106 ft | 512 kts | 114° |
| 2026-04-26 12:55 | 40.68386 | 47.59405 | 32104 ft | 511 kts | 114° |
| 2026-04-26 12:55 | 40.65905 | 47.68175 | 32103 ft | 510 kts | 114° |
| 2026-04-26 12:56 | 40.63420 | 47.76930 | 32102 ft | 509 kts | 114° |
| 2026-04-26 12:56 | 40.60953 | 47.85597 | 32103 ft | 508 kts | 114° |
| 2026-04-26 12:57 | 40.58052 | 47.93968 | 31612 ft | 495 kts | 125° |
| 2026-04-26 12:57 | 40.56038 | 47.97630 | 30635 ft | 495 kts | 135° |
| 2026-04-26 12:57 | 40.53660 | 48.00927 | 29573 ft | 497 kts | 139° |
| 2026-04-26 12:58 | 40.48682 | 48.07191 | 27901 ft | 492 kts | 139° |
| 2026-04-26 12:58 | 40.46435 | 48.10592 | 27211 ft | 493 kts | 129° |
| 2026-04-26 12:58 | 40.44657 | 48.14435 | 26547 ft | 491 kts | 122° |
| 2026-04-26 12:58 | 40.43106 | 48.18353 | 25916 ft | 488 kts | 119° |
| 2026-04-26 12:59 | 40.41641 | 48.22336 | 25292 ft | 484 kts | 118° |
| 2026-04-26 12:59 | 40.40222 | 48.26332 | 24662 ft | 479 kts | 117° |
| 2026-04-26 12:59 | 40.38831 | 48.30288 | 24031 ft | 475 kts | 117° |
| 2026-04-26 12:59 | 40.37445 | 48.34207 | 23357 ft | 471 kts | 117° |
| 2026-04-26 13:00 | 40.36058 | 48.38098 | 22609 ft | 468 kts | 117° |
| 2026-04-26 13:00 | 40.34679 | 48.41933 | 21890 ft | 464 kts | 117° |
| 2026-04-26 13:00 | 40.33302 | 48.45737 | 21172 ft | 460 kts | 117° |
| 2026-04-26 13:00 | 40.31928 | 48.49516 | 20489 ft | 456 kts | 117° |
| 2026-04-26 13:01 | 40.30567 | 48.53248 | 19816 ft | 452 kts | 118° |
| 2026-04-26 13:01 | 40.29202 | 48.56934 | 19144 ft | 448 kts | 118° |
| 2026-04-26 13:01 | 40.27835 | 48.60588 | 18494 ft | 445 kts | 118° |
| 2026-04-26 13:01 | 40.26481 | 48.64209 | 17768 ft | 441 kts | 118° |
| 2026-04-26 13:02 | 40.25164 | 48.67753 | 17049 ft | 437 kts | 118° |
| 2026-04-26 13:02 | 40.23848 | 48.71315 | 16344 ft | 433 kts | 118° |
| 2026-04-26 13:02 | 40.22545 | 48.74861 | 15650 ft | 429 kts | 118° |
| 2026-04-26 13:02 | 40.21258 | 48.78367 | 14969 ft | 425 kts | 118° |
| 2026-04-26 13:03 | 40.19985 | 48.81836 | 14305 ft | 421 kts | 118° |
| 2026-04-26 13:03 | 40.18847 | 48.85353 | 13599 ft | 420 kts | 110° |
| 2026-04-26 13:03 | 40.18124 | 48.89036 | 12897 ft | 417 kts | 104° |
| 2026-04-26 13:03 | 40.17543 | 48.92727 | 12241 ft | 411 kts | 103° |
| 2026-04-26 13:04 | 40.16979 | 48.96373 | 11548 ft | 407 kts | 103° |
| 2026-04-26 13:04 | 40.16425 | 48.99949 | 10869 ft | 403 kts | 103° |
| 2026-04-26 13:04 | 40.15868 | 49.03521 | 10205 ft | 399 kts | 103° |
| 2026-04-26 13:04 | 40.15317 | 49.07053 | 9634 ft | 392 kts | 103° |
| 2026-04-26 13:05 | 40.14783 | 49.10465 | 9348 ft | 376 kts | 104° |
| 2026-04-26 13:05 | 40.14264 | 49.13749 | 9083 ft | 362 kts | 104° |
| 2026-04-26 13:05 | 40.13761 | 49.16914 | 8851 ft | 348 kts | 104° |
| 2026-04-26 13:05 | 40.13278 | 49.19953 | 8647 ft | 334 kts | 104° |
| 2026-04-26 13:06 | 40.12814 | 49.22862 | 8463 ft | 321 kts | 104° |
| 2026-04-26 13:06 | 40.12368 | 49.25676 | 8281 ft | 310 kts | 104° |
| 2026-04-26 13:06 | 40.11939 | 49.28391 | 8085 ft | 299 kts | 104° |
| 2026-04-26 13:06 | 40.11579 | 49.31019 | 7927 ft | 289 kts | 99° |
| 2026-04-26 13:07 | 40.11522 | 49.33603 | 7771 ft | 280 kts | 89° |
| 2026-04-26 13:07 | 40.11660 | 49.36087 | 7643 ft | 270 kts | 87° |
| 2026-04-26 13:07 | 40.11822 | 49.38489 | 7512 ft | 260 kts | 87° |
| 2026-04-26 13:07 | 40.11969 | 49.40690 | 7402 ft | 251 kts | 87° |
| 2026-04-26 13:08 | 40.12116 | 49.42933 | 7308 ft | 240 kts | 87° |
| 2026-04-26 13:08 | 40.12253 | 49.45040 | 7238 ft | 226 kts | 88° |
| 2026-04-26 13:08 | 40.12381 | 49.47028 | 7139 ft | 213 kts | 88° |
| 2026-04-26 13:08 | 40.12503 | 49.48931 | 7049 ft | 209 kts | 88° |
| 2026-04-26 13:09 | 40.12621 | 49.50861 | 7032 ft | 216 kts | 88° |
| 2026-04-26 13:09 | 40.12739 | 49.52837 | 7033 ft | 218 kts | 88° |
| 2026-04-26 13:09 | 40.12880 | 49.54790 | 7030 ft | 219 kts | 85° |
| 2026-04-26 13:09 | 40.13194 | 49.56741 | 7034 ft | 220 kts | 75° |
| 2026-04-26 13:10 | 40.13758 | 49.58597 | 7033 ft | 220 kts | 64° |
| 2026-04-26 13:10 | 40.14564 | 49.60294 | 7029 ft | 220 kts | 53° |
| 2026-04-26 13:10 | 40.15581 | 49.61775 | 7026 ft | 219 kts | 43° |
| 2026-04-26 13:10 | 40.16776 | 49.63001 | 7028 ft | 217 kts | 32° |
| 2026-04-26 13:11 | 40.18079 | 49.64006 | 7027 ft | 216 kts | 27° |
| 2026-04-26 13:11 | 40.19400 | 49.64954 | 7028 ft | 216 kts | 27° |
| 2026-04-26 13:11 | 40.20718 | 49.65897 | 7023 ft | 216 kts | 27° |
| 2026-04-26 13:11 | 40.22037 | 49.66845 | 7023 ft | 216 kts | 27° |
| 2026-04-26 13:12 | 40.23358 | 49.67802 | 7020 ft | 217 kts | 27° |
| 2026-04-26 13:12 | 40.24653 | 49.68742 | 7023 ft | 217 kts | 27° |
| 2026-04-26 13:12 | 40.25981 | 49.69707 | 7019 ft | 217 kts | 27° |
| 2026-04-26 13:12 | 40.27322 | 49.70613 | 7009 ft | 216 kts | 21° |
| 2026-04-26 13:13 | 40.28754 | 49.71151 | 7017 ft | 214 kts | 6° |
| 2026-04-26 13:13 | 40.30225 | 49.71428 | 7009 ft | 213 kts | 4° |
| 2026-04-26 13:13 | 40.31693 | 49.71670 | 7011 ft | 213 kts | 3° |
| 2026-04-26 13:13 | 40.33160 | 49.71915 | 7007 ft | 212 kts | 4° |
| 2026-04-26 13:14 | 40.34627 | 49.72165 | 7003 ft | 212 kts | 4° |
| 2026-04-26 13:14 | 40.36094 | 49.72417 | 7000 ft | 213 kts | 4° |
| 2026-04-26 13:14 | 40.37561 | 49.72671 | 6993 ft | 213 kts | 4° |
| 2026-04-26 13:14 | 40.39031 | 49.72925 | 7002 ft | 213 kts | 4° |
| 2026-04-26 13:15 | 40.40486 | 49.73177 | 6875 ft | 214 kts | 4° |
| 2026-04-26 13:15 | 40.41966 | 49.73435 | 6449 ft | 215 kts | 4° |
| 2026-04-26 13:15 | 40.43436 | 49.73691 | 6010 ft | 214 kts | 4° |
| 2026-04-26 13:15 | 40.44433 | 49.73860 | 5715 ft | 213 kts | 4° |
| 2026-04-26 13:16 | 40.46391 | 49.74193 | 5173 ft | 214 kts | 4° |
| 2026-04-26 13:16 | 40.47878 | 49.74452 | 4734 ft | 216 kts | 4° |
| 2026-04-26 13:16 | 40.49372 | 49.74712 | 4300 ft | 218 kts | 5° |
| 2026-04-26 13:16 | 40.50879 | 49.74978 | 3888 ft | 219 kts | 5° |
| 2026-04-26 13:17 | 40.53886 | 49.75509 | 3058 ft | 218 kts | 6° |
| 2026-04-26 13:17 | 40.55378 | 49.75852 | 2652 ft | 219 kts | 16° |
| 2026-04-26 13:18 | 40.57397 | 49.78532 | 2023 ft | 204 kts | 71° |
| 2026-04-26 13:18 | 40.57958 | 49.80189 | 1983 ft | 191 kts | 73° |
| 2026-04-26 13:18 | 40.58915 | 49.83085 | 1999 ft | 162 kts | 75° |
| 2026-04-26 13:19 | 40.59353 | 49.84447 | 1995 ft | 162 kts | 75° |
| 2026-04-26 13:19 | 40.59790 | 49.85823 | 1995 ft | 163 kts | 76° |
| 2026-04-26 13:19 | 40.60226 | 49.87196 | 1994 ft | 163 kts | 76° |
| 2026-04-26 13:19 | 40.60664 | 49.88574 | 1994 ft | 162 kts | 75° |
| 2026-04-26 13:20 | 40.61102 | 49.89945 | 1989 ft | 163 kts | 75° |
| 2026-04-26 13:20 | 40.61542 | 49.91328 | 1990 ft | 164 kts | 75° |
| 2026-04-26 13:20 | 40.61980 | 49.92704 | 1991 ft | 163 kts | 75° |
| 2026-04-26 13:20 | 40.62418 | 49.94073 | 1985 ft | 158 kts | 75° |
| 2026-04-26 13:21 | 40.62838 | 49.95375 | 1991 ft | 155 kts | 77° |
| 2026-04-26 13:21 | 40.63123 | 49.96251 | 1992 ft | 153 kts | 76° |
| 2026-04-26 13:21 | 40.63171 | 49.97946 | 1998 ft | 131 kts | 127° |
| 2026-04-26 13:21 | 40.62625 | 49.98797 | 1993 ft | 116 kts | 158° |
| 2026-04-26 13:22 | 40.61889 | 49.99108 | 2000 ft | 110 kts | 175° |
| 2026-04-26 13:22 | 40.61135 | 49.99334 | 1996 ft | 112 kts | 174° |
| 2026-04-26 13:22 | 40.60375 | 49.99568 | 1991 ft | 112 kts | 174° |
| 2026-04-26 13:22 | 40.59871 | 49.99723 | 1993 ft | 113 kts | 173° |
| 2026-04-26 13:23 | 40.59623 | 49.99801 | 1998 ft | 113 kts | 173° |
| 2026-04-26 13:23 | 40.59000 | 49.99995 | 1993 ft | 113 kts | 173° |
| 2026-04-26 13:23 | 40.58234 | 50.00237 | 1998 ft | 113 kts | 174° |
| 2026-04-26 13:23 | 40.57463 | 50.00466 | 1976 ft | 113 kts | 175° |
| 2026-04-26 13:24 | 40.56692 | 50.00642 | 1984 ft | 113 kts | 176° |
| 2026-04-26 13:24 | 40.55920 | 50.00899 | 1982 ft | 114 kts | 172° |
| 2026-04-26 13:24 | 40.55162 | 50.01147 | 1991 ft | 114 kts | 174° |
| 2026-04-26 13:24 | 40.54388 | 50.01381 | 1961 ft | 116 kts | 173° |
| 2026-04-26 13:25 | 40.53518 | 50.01654 | 1469 ft | 134 kts | 168° |
| 2026-04-26 13:25 | 40.52910 | 50.01865 | 1214 ft | 137 kts | 168° |
| 2026-04-26 13:25 | 40.51767 | 50.02210 | 778 ft | 135 kts | 168° |
| 2026-04-26 13:25 | 40.50868 | 50.02461 | 481 ft | 130 kts | 166° |
| 2026-04-26 13:26 | 40.50011 | 50.02735 | 256 ft | 120 kts | 164° |
| 2026-04-26 13:26 | 40.49229 | 50.02992 | 98 ft | 111 kts | 164° |
| 2026-04-26 13:26 | 40.48497 | 50.03224 | 16 ft | 100 kts | 165° |
| 2026-04-26 13:26 | 40.48053 | 50.03363 | 12 ft | 25 kts | 167° |
| 2026-04-26 13:27 | 40.47981 | 50.03385 | 12 ft | 24 kts | 167° |
| 2026-04-26 13:27 | 40.47813 | 50.03438 | 10 ft | 24 kts | 167° |
| 2026-04-26 13:27 | 40.47686 | 50.03515 | 10 ft | 16 kts | 114° |
| 2026-04-26 13:27 | 40.47666 | 50.03621 | 10 ft | 9 kts | 124° |
| 2026-04-26 13:28 | 40.47632 | 50.03652 | 10 ft | 9 kts | 158° |
| 2026-04-26 13:28 | 40.47560 | 50.03663 | 10 ft | 12 kts | 171° |
| 2026-04-26 13:28 | 40.47475 | 50.03696 | 10 ft | 12 kts | 160° |
| 2026-04-26 13:28 | 40.47429 | 50.03719 | 10 ft | 0 kts | 159° |
| 2026-04-26 13:31 | 40.47382 | 50.03742 | 10 ft | 12 kts | 159° |
| 2026-04-26 13:31 | 40.47298 | 50.03783 | 9 ft | 14 kts | 161° |
| 2026-04-26 13:31 | 40.47195 | 50.03830 | 8 ft | 17 kts | 160° |
| 2026-04-26 13:31 | 40.47076 | 50.03891 | 7 ft | 19 kts | 159° |
| 2026-04-26 13:32 | 40.46968 | 50.03945 | 6 ft | 13 kts | 159° |
| 2026-04-26 13:32 | 40.46875 | 50.03994 | 5 ft | 15 kts | 149° |
| 2026-04-26 13:32 | 40.46859 | 50.04118 | 5 ft | 16 kts | 78° |
| 2026-04-26 13:32 | 40.46887 | 50.04273 | 6 ft | 19 kts | 77° |
| 2026-04-26 13:33 | 40.46908 | 50.04453 | 6 ft | 21 kts | 86° |
| 2026-04-26 13:33 | 40.46913 | 50.04590 | 7 ft | 10 kts | 88° |
| 2026-04-26 13:33 | 40.46914 | 50.04698 | 7 ft | 13 kts | 88° |
| 2026-04-26 13:33 | 40.46917 | 50.04834 | 8 ft | 16 kts | 88° |
| 2026-04-26 13:34 | 40.46923 | 50.04987 | 8 ft | 15 kts | 89° |
| 2026-04-26 13:34 | 40.46866 | 50.05040 | 8 ft | 9 kts | 186° |
| 2026-04-26 13:34 | 40.46795 | 50.05032 | 8 ft | 9 kts | 174° |
| 2026-04-26 13:34 | 40.46764 | 50.05056 | 8 ft | 4 kts | 142° |
| 2026-04-26 13:35 | 40.46722 | 50.05099 | 8 ft | 8 kts | 142° |
| 2026-04-26 13:35 | 40.46719 | 50.05102 | 7 ft | 0 kts | 142° |